Impacts METAR Board
IDs:

KEWR - Newark Intl, NJ, US

Updated at: 2000 UTC 19 May 2019
Potential Impact None Slight Moderate High
Time 19/08Z 19/09Z 19/10Z 19/11Z 19/12Z 19/13Z 19/14Z 19/15Z 19/16Z 19/17Z 19/18Z 19/19Z 19/20Z
Temp60 59 60 61 63 63 67 71 73 73 75 77 80
Dewpt51 52 53 54 55 56 59 59 57 59 61 62 64
Altim30.08 30.07 30.08 30.08 30.08 30.08 30.07 30.06 30.04 30.03 30.01 29.98 29.94
VIS10 10 10 10 10 10 10 10 10 10 10 10 10
CIG250 150 39 36 250 100 250 50 -- -- -- -- --
CoverBKNBKNOVCBKNBKNOVCBKNBKNSCTSCTSCTSCTFEW
FltCatVFRVFRVFRVFRVFRVFRVFRVFRVFRVFRVFRVFRVFR
WX-----------RA--------------
WDir17016018019019018016000809080120
WSpd4 5 6 5 11 7 4 5 6 8 8 8 8
WGst-- -- -- -- -- -- -- -- -- -- -- -- --
Raw hourly METARs
KEWR 190751Z 17004KT 10SM FEW045 SCT180 BKN250 16/11 A3008 RMK AO2 SLP184 T01560106
KEWR 190851Z 16005KT 10SM FEW049 BKN150 BKN250 15/11 A3007 RMK AO2 SLP181 T01500111 58001
KEWR 190951Z 18006KT 10SM OVC039 16/12 A3008 RMK AO2 SLP185 T01560117
KEWR 191051Z 19005KT 10SM BKN036 BKN130 BKN250 16/12 A3008 RMK AO2 SLP187 CB DSNT SE MOV E TCU DSNT SW T01610122
KEWR 191151Z 19011KT 10SM FEW036 SCT060 SCT130 BKN250 17/13 A3008 RMK AO2 SLP186 CB DSNT S MOV E TCU DSNT W T01720128 10172 20150 50005
KEWR 191251Z 18007KT 10SM -RA FEW035 SCT055 OVC100 17/13 A3008 RMK AO2 RAB24 SLP186 CB DSNT SE MOV E P0000 T01720133
KEWR 191351Z 16004KT 10SM SCT060 SCT130 BKN250 19/15 A3007 RMK AO2 RAE01 SLP181 P0000 T01940150
KEWR 191451Z VRB05KT 10SM BKN050 BKN130 BKN250 22/15 A3006 RMK AO2 SLP177 60000 T02170150 58009
KEWR 191551Z VRB06KT 10SM FEW038 SCT130 SCT250 23/14 A3004 RMK AO2 SLP173 T02280139
KEWR 191651Z 08008KT 10SM FEW040 SCT130 SCT250 23/15 A3003 RMK AO2 SLP167 T02280150
KEWR 191751Z 09008KT 10SM FEW035 SCT130 SCT250 24/16 A3001 RMK AO2 SLP161 60000 T02390161 10244 20167 58016
KEWR 191851Z 08008KT 10SM FEW035 FEW130 SCT250 25/17 A2998 RMK AO2 SLP152 T02500167
KEWR 191951Z 12008KT 10SM FEW033 FEW130 FEW250 27/18 A2994 RMK AO2 SLP139 T02670178



Page loaded:  20:44 UTC  |   01:44 PM Pacific  |   02:44 PM Mountain  |   03:44 PM Central  |   04:44 PM Eastern

 

ADVISORIES

FORECASTS

FORECASTS

OBSERVATIONS

USER TOOLS

ABOUT US